Big Moose, New York
Current Conditions -  °F | °C
As of 1:58 AM on Thursday 27 Nov 2014 (Local Time) from KGTB Reporting Station
Overcast Overcast  
Wind Chill: 20°   Ceiling: 1600
Heat Index: 26°   Visibility: 10mi
Dew Point: 24°   Wind: 5mph
Humidity: 96%   Direction: 350°N
Pressure: 29.98"   Gusts: NA
Location:  43.8364°N, 74.9967°W
Report Text: KGTB 270658Z AUTO 35004KT 10SM BKN016 OVC039 M04/M04 A2998 RMK AO2 SLP162 T10361042
Loading
Personal Weather Stations






























Interactive Weather Map New forecast layout! Learn more

10-Day Weather Forecast

Advertisements
Track Severe Weather on mobile